sensor_id;sensor_type;location;lat;lon;timestamp;P1;durP1;ratioP1;P2;durP2;ratioP2
62610;SDS011;48683;48.084;17.272;2023-04-24T00:00:27;10.90;;;8.82;;
62610;SDS011;48683;48.084;17.272;2023-04-24T00:02:52;11.30;;;9.65;;
62610;SDS011;48683;48.084;17.272;2023-04-24T00:05:21;9.75;;;8.85;;
62610;SDS011;48683;48.084;17.272;2023-04-24T00:07:47;11.45;;;9.75;;
62610;SDS011;48683;48.084;17.272;2023-04-24T00:10:12;10.13;;;8.65;;
62610;SDS011;48683;48.084;17.272;2023-04-24T00:12:38;11.40;;;8.88;;
62610;SDS011;48683;48.084;17.272;2023-04-24T00:15:04;11.98;;;9.60;;
62610;SDS011;48683;48.084;17.272;2023-04-24T00:17:30;13.25;;;8.80;;
62610;SDS011;48683;48.084;17.272;2023-04-24T00:19:55;10.80;;;8.38;;
62610;SDS011;48683;48.084;17.272;2023-04-24T00:22:26;12.68;;;9.57;;
62610;SDS011;48683;48.084;17.272;2023-04-24T00:24:53;10.27;;;9.15;;
62610;SDS011;48683;48.084;17.272;2023-04-24T00:27:18;9.70;;;8.63;;
62610;SDS011;48683;48.084;17.272;2023-04-24T00:29:44;9.70;;;8.70;;
62610;SDS011;48683;48.084;17.272;2023-04-24T00:32:09;9.57;;;8.40;;
62610;SDS011;48683;48.084;17.272;2023-04-24T00:34:35;10.15;;;8.75;;
62610;SDS011;48683;48.084;17.272;2023-04-24T00:37:00;10.68;;;8.85;;
62610;SDS011;48683;48.084;17.272;2023-04-24T00:39:26;9.95;;;8.95;;
62610;SDS011;48683;48.084;17.272;2023-04-24T00:41:51;12.80;;;9.57;;
62610;SDS011;48683;48.084;17.272;2023-04-24T00:44:18;9.80;;;8.68;;
62610;SDS011;48683;48.084;17.272;2023-04-24T00:46:43;14.50;;;9.38;;
62610;SDS011;48683;48.084;17.272;2023-04-24T00:49:08;11.98;;;9.15;;
62610;SDS011;48683;48.084;17.272;2023-04-24T00:51:34;10.63;;;8.88;;
62610;SDS011;48683;48.084;17.272;2023-04-24T00:54:00;10.15;;;9.07;;
62610;SDS011;48683;48.084;17.272;2023-04-24T00:56:25;10.18;;;8.35;;
62610;SDS011;48683;48.084;17.272;2023-04-24T00:58:51;11.07;;;8.55;;
62610;SDS011;48683;48.084;17.272;2023-04-24T01:01:16;10.80;;;8.40;;
62610;SDS011;48683;48.084;17.272;2023-04-24T01:03:45;11.55;;;8.02;;
62610;SDS011;48683;48.084;17.272;2023-04-24T01:06:11;10.50;;;7.70;;
62610;SDS011;48683;48.084;17.272;2023-04-24T01:08:37;8.60;;;7.70;;
62610;SDS011;48683;48.084;17.272;2023-04-24T01:11:04;8.65;;;7.47;;
62610;SDS011;48683;48.084;17.272;2023-04-24T01:13:31;10.50;;;7.35;;
62610;SDS011;48683;48.084;17.272;2023-04-24T01:15:57;7.55;;;6.28;;
62610;SDS011;48683;48.084;17.272;2023-04-24T01:18:22;8.25;;;6.70;;
62610;SDS011;48683;48.084;17.272;2023-04-24T01:20:47;8.95;;;6.82;;
62610;SDS011;48683;48.084;17.272;2023-04-24T01:23:18;7.68;;;6.88;;
62610;SDS011;48683;48.084;17.272;2023-04-24T01:25:43;10.13;;;7.40;;
62610;SDS011;48683;48.084;17.272;2023-04-24T01:28:09;11.32;;;8.20;;
62610;SDS011;48683;48.084;17.272;2023-04-24T01:30:34;9.27;;;7.13;;
62610;SDS011;48683;48.084;17.272;2023-04-24T01:33:00;8.15;;;6.78;;
62610;SDS011;48683;48.084;17.272;2023-04-24T01:35:26;8.18;;;7.38;;
62610;SDS011;48683;48.084;17.272;2023-04-24T01:37:52;10.63;;;8.15;;
62610;SDS011;48683;48.084;17.272;2023-04-24T01:40:17;10.02;;;7.80;;
62610;SDS011;48683;48.084;17.272;2023-04-24T01:42:43;9.85;;;8.35;;
62610;SDS011;48683;48.084;17.272;2023-04-24T01:45:10;10.27;;;8.70;;
62610;SDS011;48683;48.084;17.272;2023-04-24T01:47:37;8.95;;;8.05;;
62610;SDS011;48683;48.084;17.272;2023-04-24T01:50:03;10.10;;;8.55;;
62610;SDS011;48683;48.084;17.272;2023-04-24T01:52:29;10.07;;;7.95;;
62610;SDS011;48683;48.084;17.272;2023-04-24T01:54:56;11.65;;;9.93;;
62610;SDS011;48683;48.084;17.272;2023-04-24T01:57:21;10.02;;;8.88;;
62610;SDS011;48683;48.084;17.272;2023-04-24T01:59:47;9.88;;;8.90;;
62610;SDS011;48683;48.084;17.272;2023-04-24T02:02:12;12.02;;;9.38;;
62610;SDS011;48683;48.084;17.272;2023-04-24T02:04:38;14.85;;;9.70;;
62610;SDS011;48683;48.084;17.272;2023-04-24T02:07:04;10.17;;;9.17;;
62610;SDS011;48683;48.084;17.272;2023-04-24T02:09:30;10.65;;;9.55;;
62610;SDS011;48683;48.084;17.272;2023-04-24T02:11:55;11.82;;;9.88;;
62610;SDS011;48683;48.084;17.272;2023-04-24T02:14:21;10.52;;;9.43;;
62610;SDS011;48683;48.084;17.272;2023-04-24T02:16:46;12.55;;;10.55;;
62610;SDS011;48683;48.084;17.272;2023-04-24T02:19:12;10.85;;;9.38;;
62610;SDS011;48683;48.084;17.272;2023-04-24T02:21:37;11.18;;;10.02;;
62610;SDS011;48683;48.084;17.272;2023-04-24T02:24:02;13.23;;;10.18;;
62610;SDS011;48683;48.084;17.272;2023-04-24T02:26:28;13.60;;;10.05;;
62610;SDS011;48683;48.084;17.272;2023-04-24T02:28:53;11.35;;;10.25;;
62610;SDS011;48683;48.084;17.272;2023-04-24T02:31:19;14.63;;;10.30;;
62610;SDS011;48683;48.084;17.272;2023-04-24T02:33:44;15.52;;;10.95;;
62610;SDS011;48683;48.084;17.272;2023-04-24T02:36:10;14.02;;;10.23;;
62610;SDS011;48683;48.084;17.272;2023-04-24T02:38:35;11.80;;;10.68;;
62610;SDS011;48683;48.084;17.272;2023-04-24T02:41:01;14.52;;;10.65;;
62610;SDS011;48683;48.084;17.272;2023-04-24T02:43:27;13.03;;;10.57;;
62610;SDS011;48683;48.084;17.272;2023-04-24T02:45:52;12.55;;;11.27;;
62610;SDS011;48683;48.084;17.272;2023-04-24T02:48:18;12.88;;;10.07;;
62610;SDS011;48683;48.084;17.272;2023-04-24T02:50:45;12.82;;;10.75;;
62610;SDS011;48683;48.084;17.272;2023-04-24T02:53:11;11.77;;;9.90;;
62610;SDS011;48683;48.084;17.272;2023-04-24T02:55:36;17.33;;;10.75;;
62610;SDS011;48683;48.084;17.272;2023-04-24T02:58:01;14.93;;;10.95;;
62610;SDS011;48683;48.084;17.272;2023-04-24T03:00:27;13.40;;;10.68;;
62610;SDS011;48683;48.084;17.272;2023-04-24T03:02:52;13.50;;;11.32;;
62610;SDS011;48683;48.084;17.272;2023-04-24T03:05:18;12.05;;;10.55;;
62610;SDS011;48683;48.084;17.272;2023-04-24T03:07:43;12.80;;;10.90;;
62610;SDS011;48683;48.084;17.272;2023-04-24T03:10:08;12.45;;;10.52;;
62610;SDS011;48683;48.084;17.272;2023-04-24T03:12:34;11.45;;;10.05;;
62610;SDS011;48683;48.084;17.272;2023-04-24T03:14:59;14.73;;;10.32;;
62610;SDS011;48683;48.084;17.272;2023-04-24T03:17:25;14.98;;;12.10;;
62610;SDS011;48683;48.084;17.272;2023-04-24T03:19:50;11.70;;;10.60;;
62610;SDS011;48683;48.084;17.272;2023-04-24T03:22:16;14.27;;;11.60;;
62610;SDS011;48683;48.084;17.272;2023-04-24T03:24:41;11.98;;;10.32;;
62610;SDS011;48683;48.084;17.272;2023-04-24T03:27:06;15.25;;;11.55;;
62610;SDS011;48683;48.084;17.272;2023-04-24T03:29:32;14.10;;;11.90;;
62610;SDS011;48683;48.084;17.272;2023-04-24T03:31:57;13.88;;;11.98;;
62610;SDS011;48683;48.084;17.272;2023-04-24T03:34:22;15.43;;;12.00;;
62610;SDS011;48683;48.084;17.272;2023-04-24T03:36:48;11.93;;;10.55;;
62610;SDS011;48683;48.084;17.272;2023-04-24T03:39:13;11.15;;;9.77;;
62610;SDS011;48683;48.084;17.272;2023-04-24T03:41:38;11.65;;;10.00;;
62610;SDS011;48683;48.084;17.272;2023-04-24T03:44:04;13.55;;;10.48;;
62610;SDS011;48683;48.084;17.272;2023-04-24T03:46:29;12.85;;;11.30;;
62610;SDS011;48683;48.084;17.272;2023-04-24T03:48:55;12.73;;;10.93;;
62610;SDS011;48683;48.084;17.272;2023-04-24T03:51:20;17.80;;;11.68;;
62610;SDS011;48683;48.084;17.272;2023-04-24T03:53:46;13.90;;;10.83;;
62610;SDS011;48683;48.084;17.272;2023-04-24T03:56:12;11.85;;;10.68;;
62610;SDS011;48683;48.084;17.272;2023-04-24T03:58:37;16.77;;;11.23;;
62610;SDS011;48683;48.084;17.272;2023-04-24T04:01:02;13.50;;;12.02;;
62610;SDS011;48683;48.084;17.272;2023-04-24T04:03:28;12.68;;;11.40;;
62610;SDS011;48683;48.084;17.272;2023-04-24T04:05:53;14.35;;;11.43;;
62610;SDS011;48683;48.084;17.272;2023-04-24T04:08:19;16.80;;;11.75;;
62610;SDS011;48683;48.084;17.272;2023-04-24T04:10:44;13.68;;;11.55;;
62610;SDS011;48683;48.084;17.272;2023-04-24T04:13:10;13.32;;;11.45;;
62610;SDS011;48683;48.084;17.272;2023-04-24T04:15:35;14.43;;;11.70;;
62610;SDS011;48683;48.084;17.272;2023-04-24T04:18:00;15.90;;;12.05;;
62610;SDS011;48683;48.084;17.272;2023-04-24T04:20:26;14.80;;;12.05;;
62610;SDS011;48683;48.084;17.272;2023-04-24T04:22:51;17.50;;;12.52;;
62610;SDS011;48683;48.084;17.272;2023-04-24T04:25:17;17.20;;;12.55;;
62610;SDS011;48683;48.084;17.272;2023-04-24T04:27:44;15.20;;;11.32;;
62610;SDS011;48683;48.084;17.272;2023-04-24T04:30:12;16.50;;;12.20;;
62610;SDS011;48683;48.084;17.272;2023-04-24T04:32:38;14.52;;;11.77;;
62610;SDS011;48683;48.084;17.272;2023-04-24T04:35:03;14.65;;;11.63;;
62610;SDS011;48683;48.084;17.272;2023-04-24T04:37:29;15.18;;;12.00;;
62610;SDS011;48683;48.084;17.272;2023-04-24T04:39:56;15.82;;;12.45;;
62610;SDS011;48683;48.084;17.272;2023-04-24T04:42:23;15.38;;;11.98;;
62610;SDS011;48683;48.084;17.272;2023-04-24T04:44:48;14.70;;;11.75;;
62610;SDS011;48683;48.084;17.272;2023-04-24T04:47:15;13.93;;;12.27;;
62610;SDS011;48683;48.084;17.272;2023-04-24T04:49:41;14.10;;;12.60;;
62610;SDS011;48683;48.084;17.272;2023-04-24T04:52:06;11.63;;;10.48;;
62610;SDS011;48683;48.084;17.272;2023-04-24T04:54:31;17.05;;;12.65;;
62610;SDS011;48683;48.084;17.272;2023-04-24T04:56:57;12.82;;;11.55;;
62610;SDS011;48683;48.084;17.272;2023-04-24T04:59:22;16.67;;;12.57;;
62610;SDS011;48683;48.084;17.272;2023-04-24T05:01:48;16.80;;;12.63;;
62610;SDS011;48683;48.084;17.272;2023-04-24T05:04:13;14.10;;;12.48;;
62610;SDS011;48683;48.084;17.272;2023-04-24T05:06:39;13.95;;;12.20;;
62610;SDS011;48683;48.084;17.272;2023-04-24T05:09:04;19.67;;;12.45;;
62610;SDS011;48683;48.084;17.272;2023-04-24T05:11:30;20.70;;;13.40;;
62610;SDS011;48683;48.084;17.272;2023-04-24T05:13:55;15.90;;;12.60;;
62610;SDS011;48683;48.084;17.272;2023-04-24T05:16:20;14.93;;;13.13;;
62610;SDS011;48683;48.084;17.272;2023-04-24T05:18:46;18.30;;;12.40;;
62610;SDS011;48683;48.084;17.272;2023-04-24T05:21:11;19.77;;;13.43;;
62610;SDS011;48683;48.084;17.272;2023-04-24T05:23:37;14.68;;;11.77;;
62610;SDS011;48683;48.084;17.272;2023-04-24T05:26:02;14.75;;;11.77;;
62610;SDS011;48683;48.084;17.272;2023-04-24T05:28:28;13.98;;;12.57;;
62610;SDS011;48683;48.084;17.272;2023-04-24T05:30:54;16.02;;;13.45;;
62610;SDS011;48683;48.084;17.272;2023-04-24T05:33:20;14.20;;;12.80;;
62610;SDS011;48683;48.084;17.272;2023-04-24T05:35:47;15.07;;;12.88;;
62610;SDS011;48683;48.084;17.272;2023-04-24T05:38:13;16.92;;;13.60;;
62610;SDS011;48683;48.084;17.272;2023-04-24T05:40:39;14.70;;;12.90;;
62610;SDS011;48683;48.084;17.272;2023-04-24T05:43:05;15.20;;;12.75;;
62610;SDS011;48683;48.084;17.272;2023-04-24T05:45:30;15.45;;;12.95;;
62610;SDS011;48683;48.084;17.272;2023-04-24T05:47:56;12.93;;;11.52;;
62610;SDS011;48683;48.084;17.272;2023-04-24T05:50:22;16.35;;;12.43;;
62610;SDS011;48683;48.084;17.272;2023-04-24T05:52:47;13.90;;;12.40;;
62610;SDS011;48683;48.084;17.272;2023-04-24T05:55:12;13.32;;;12.02;;
62610;SDS011;48683;48.084;17.272;2023-04-24T05:57:38;13.35;;;12.05;;
62610;SDS011;48683;48.084;17.272;2023-04-24T06:00:04;13.30;;;11.93;;
62610;SDS011;48683;48.084;17.272;2023-04-24T06:02:30;18.27;;;13.20;;
62610;SDS011;48683;48.084;17.272;2023-04-24T06:04:57;14.15;;;12.65;;
62610;SDS011;48683;48.084;17.272;2023-04-24T06:09:51;15.40;;;13.05;;
62610;SDS011;48683;48.084;17.272;2023-04-24T06:12:17;17.70;;;13.35;;
62610;SDS011;48683;48.084;17.272;2023-04-24T06:14:42;15.80;;;13.13;;
62610;SDS011;48683;48.084;17.272;2023-04-24T06:17:08;13.90;;;12.50;;
62610;SDS011;48683;48.084;17.272;2023-04-24T06:19:33;16.45;;;13.05;;
62610;SDS011;48683;48.084;17.272;2023-04-24T06:21:59;17.77;;;12.77;;
62610;SDS011;48683;48.084;17.272;2023-04-24T06:24:27;16.50;;;13.10;;
62610;SDS011;48683;48.084;17.272;2023-04-24T06:26:53;18.08;;;13.27;;
62610;SDS011;48683;48.084;17.272;2023-04-24T06:29:19;16.00;;;12.23;;
62610;SDS011;48683;48.084;17.272;2023-04-24T06:31:44;15.50;;;12.15;;
62610;SDS011;48683;48.084;17.272;2023-04-24T06:34:10;13.93;;;11.97;;
62610;SDS011;48683;48.084;17.272;2023-04-24T06:36:35;15.77;;;12.60;;
62610;SDS011;48683;48.084;17.272;2023-04-24T06:39:00;16.97;;;12.03;;
62610;SDS011;48683;48.084;17.272;2023-04-24T06:41:26;20.83;;;12.33;;
62610;SDS011;48683;48.084;17.272;2023-04-24T06:43:52;15.88;;;12.25;;
62610;SDS011;48683;48.084;17.272;2023-04-24T06:46:17;14.93;;;12.93;;
62610;SDS011;48683;48.084;17.272;2023-04-24T06:48:43;17.02;;;13.15;;
62610;SDS011;48683;48.084;17.272;2023-04-24T06:51:08;17.23;;;12.93;;
62610;SDS011;48683;48.084;17.272;2023-04-24T06:53:34;17.08;;;14.13;;
62610;SDS011;48683;48.084;17.272;2023-04-24T06:56:00;14.13;;;12.73;;
62610;SDS011;48683;48.084;17.272;2023-04-24T06:58:25;15.27;;;11.98;;
62610;SDS011;48683;48.084;17.272;2023-04-24T07:00:51;14.43;;;12.43;;
62610;SDS011;48683;48.084;17.272;2023-04-24T07:03:16;13.77;;;11.50;;
62610;SDS011;48683;48.084;17.272;2023-04-24T07:05:41;13.02;;;11.40;;
62610;SDS011;48683;48.084;17.272;2023-04-24T07:08:07;13.47;;;10.77;;
62610;SDS011;48683;48.084;17.272;2023-04-24T07:10:33;11.97;;;9.77;;
62610;SDS011;48683;48.084;17.272;2023-04-24T07:13:00;11.30;;;10.20;;
62610;SDS011;48683;48.084;17.272;2023-04-24T07:15:26;12.77;;;7.97;;
62610;SDS011;48683;48.084;17.272;2023-04-24T07:17:51;9.67;;;7.23;;
62610;SDS011;48683;48.084;17.272;2023-04-24T07:20:17;8.32;;;7.55;;
62610;SDS011;48683;48.084;17.272;2023-04-24T07:22:42;9.87;;;8.20;;
62610;SDS011;48683;48.084;17.272;2023-04-24T07:25:08;8.07;;;7.27;;
62610;SDS011;48683;48.084;17.272;2023-04-24T07:27:34;10.70;;;7.90;;
62610;SDS011;48683;48.084;17.272;2023-04-24T07:30:00;7.60;;;6.90;;
62610;SDS011;48683;48.084;17.272;2023-04-24T07:32:26;9.45;;;8.52;;
62610;SDS011;48683;48.084;17.272;2023-04-24T07:34:51;9.07;;;7.80;;
62610;SDS011;48683;48.084;17.272;2023-04-24T07:37:17;10.53;;;8.27;;
62610;SDS011;48683;48.084;17.272;2023-04-24T07:39:42;9.13;;;7.83;;
62610;SDS011;48683;48.084;17.272;2023-04-24T07:42:08;9.55;;;7.80;;
62610;SDS011;48683;48.084;17.272;2023-04-24T07:44:33;11.55;;;7.40;;
62610;SDS011;48683;48.084;17.272;2023-04-24T07:46:58;8.85;;;7.32;;
62610;SDS011;48683;48.084;17.272;2023-04-24T07:49:24;8.43;;;7.13;;
62610;SDS011;48683;48.084;17.272;2023-04-24T07:51:50;7.70;;;7.00;;
62610;SDS011;48683;48.084;17.272;2023-04-24T07:54:15;11.77;;;7.13;;
62610;SDS011;48683;48.084;17.272;2023-04-24T07:56:41;6.73;;;5.63;;
62610;SDS011;48683;48.084;17.272;2023-04-24T07:59:08;5.80;;;5.30;;
62610;SDS011;48683;48.084;17.272;2023-04-24T08:01:34;5.40;;;3.53;;
62610;SDS011;48683;48.084;17.272;2023-04-24T08:04:00;6.00;;;4.13;;
62610;SDS011;48683;48.084;17.272;2023-04-24T08:06:25;3.80;;;3.47;;
62610;SDS011;48683;48.084;17.272;2023-04-24T08:08:55;4.28;;;3.72;;
62610;SDS011;48683;48.084;17.272;2023-04-24T08:11:21;6.27;;;3.70;;
62610;SDS011;48683;48.084;17.272;2023-04-24T08:13:46;5.57;;;3.73;;
62610;SDS011;48683;48.084;17.272;2023-04-24T08:16:11;5.27;;;3.83;;
62610;SDS011;48683;48.084;17.272;2023-04-24T08:18:37;4.10;;;3.70;;
62610;SDS011;48683;48.084;17.272;2023-04-24T08:21:02;4.77;;;3.47;;
62610;SDS011;48683;48.084;17.272;2023-04-24T08:23:28;4.17;;;3.77;;
62610;SDS011;48683;48.084;17.272;2023-04-24T08:25:54;5.78;;;3.83;;
62610;SDS011;48683;48.084;17.272;2023-04-24T08:28:20;4.40;;;4.00;;
62610;SDS011;48683;48.084;17.272;2023-04-24T08:30:45;5.07;;;4.20;;
62610;SDS011;48683;48.084;17.272;2023-04-24T08:33:12;4.35;;;3.83;;
62610;SDS011;48683;48.084;17.272;2023-04-24T08:35:38;4.40;;;4.00;;
62610;SDS011;48683;48.084;17.272;2023-04-24T08:38:04;6.13;;;4.37;;
62610;SDS011;48683;48.084;17.272;2023-04-24T08:40:29;7.20;;;3.50;;
62610;SDS011;48683;48.084;17.272;2023-04-24T08:42:59;3.95;;;3.55;;
62610;SDS011;48683;48.084;17.272;2023-04-24T08:45:25;4.03;;;3.60;;
62610;SDS011;48683;48.084;17.272;2023-04-24T08:47:51;3.80;;;3.50;;
62610;SDS011;48683;48.084;17.272;2023-04-24T08:50:19;5.15;;;3.70;;
62610;SDS011;48683;48.084;17.272;2023-04-24T08:52:45;3.57;;;3.27;;
62610;SDS011;48683;48.084;17.272;2023-04-24T08:55:12;5.43;;;3.20;;
62610;SDS011;48683;48.084;17.272;2023-04-24T08:57:37;4.77;;;3.13;;
62610;SDS011;48683;48.084;17.272;2023-04-24T09:00:05;3.47;;;3.17;;
62610;SDS011;48683;48.084;17.272;2023-04-24T09:02:31;3.97;;;2.75;;
62610;SDS011;48683;48.084;17.272;2023-04-24T09:04:57;3.20;;;2.90;;
62610;SDS011;48683;48.084;17.272;2023-04-24T09:07:24;3.60;;;3.30;;
62610;SDS011;48683;48.084;17.272;2023-04-24T09:09:51;3.83;;;3.35;;
62610;SDS011;48683;48.084;17.272;2023-04-24T09:12:16;3.50;;;3.20;;
62610;SDS011;48683;48.084;17.272;2023-04-24T09:14:42;4.73;;;3.33;;
62610;SDS011;48683;48.084;17.272;2023-04-24T09:17:10;4.18;;;3.63;;
62610;SDS011;48683;48.084;17.272;2023-04-24T09:19:36;3.92;;;3.30;;
62610;SDS011;48683;48.084;17.272;2023-04-24T09:22:04;6.43;;;3.43;;
62610;SDS011;48683;48.084;17.272;2023-04-24T09:24:31;5.85;;;3.75;;
62610;SDS011;48683;48.084;17.272;2023-04-24T09:26:57;4.07;;;3.50;;
62610;SDS011;48683;48.084;17.272;2023-04-24T09:29:29;4.28;;;3.60;;
62610;SDS011;48683;48.084;17.272;2023-04-24T09:31:54;3.33;;;3.00;;
62610;SDS011;48683;48.084;17.272;2023-04-24T09:34:23;4.30;;;2.50;;
62610;SDS011;48683;48.084;17.272;2023-04-24T09:36:50;3.25;;;2.85;;
62610;SDS011;48683;48.084;17.272;2023-04-24T09:39:16;4.63;;;2.78;;
62610;SDS011;48683;48.084;17.272;2023-04-24T09:44:21;4.30;;;2.53;;
62610;SDS011;48683;48.084;17.272;2023-04-24T09:46:52;2.70;;;2.50;;
62610;SDS011;48683;48.084;17.272;2023-04-24T09:49:23;4.18;;;2.90;;
62610;SDS011;48683;48.084;17.272;2023-04-24T09:51:50;3.67;;;2.70;;
62610;SDS011;48683;48.084;17.272;2023-04-24T09:54:17;5.07;;;2.70;;
62610;SDS011;48683;48.084;17.272;2023-04-24T09:56:45;2.80;;;2.60;;
62610;SDS011;48683;48.084;17.272;2023-04-24T09:59:12;3.35;;;2.70;;
62610;SDS011;48683;48.084;17.272;2023-04-24T10:04:06;3.33;;;2.30;;
62610;SDS011;48683;48.084;17.272;2023-04-24T10:06:40;2.40;;;2.20;;
62610;SDS011;48683;48.084;17.272;2023-04-24T10:11:33;2.37;;;2.17;;
62610;SDS011;48683;48.084;17.272;2023-04-24T10:13:58;2.23;;;1.90;;
62610;SDS011;48683;48.084;17.272;2023-04-24T10:16:24;2.40;;;2.20;;
62610;SDS011;48683;48.084;17.272;2023-04-24T10:18:52;2.70;;;2.00;;
62610;SDS011;48683;48.084;17.272;2023-04-24T10:21:17;2.50;;;2.30;;
62610;SDS011;48683;48.084;17.272;2023-04-24T10:23:43;3.87;;;2.10;;
62610;SDS011;48683;48.084;17.272;2023-04-24T10:26:10;3.65;;;2.00;;
62610;SDS011;48683;48.084;17.272;2023-04-24T10:28:42;1.80;;;1.50;;
62610;SDS011;48683;48.084;17.272;2023-04-24T10:31:10;2.78;;;1.80;;
62610;SDS011;48683;48.084;17.272;2023-04-24T10:36:03;1.67;;;1.58;;
62610;SDS011;48683;48.084;17.272;2023-04-24T10:38:29;3.25;;;1.80;;
62610;SDS011;48683;48.084;17.272;2023-04-24T10:41:11;2.37;;;2.03;;
62610;SDS011;48683;48.084;17.272;2023-04-24T10:43:44;2.25;;;2.00;;
62610;SDS011;48683;48.084;17.272;2023-04-24T10:46:10;1.50;;;1.40;;
62610;SDS011;48683;48.084;17.272;2023-04-24T10:48:35;4.67;;;1.40;;
62610;SDS011;48683;48.084;17.272;2023-04-24T10:51:10;1.67;;;1.35;;
62610;SDS011;48683;48.084;17.272;2023-04-24T10:53:36;1.40;;;1.30;;
62610;SDS011;48683;48.084;17.272;2023-04-24T10:56:04;1.10;;;1.00;;
62610;SDS011;48683;48.084;17.272;2023-04-24T10:58:53;2.63;;;1.17;;
62610;SDS011;48683;48.084;17.272;2023-04-24T11:01:28;1.95;;;1.08;;
62610;SDS011;48683;48.084;17.272;2023-04-24T11:03:55;3.70;;;1.20;;
62610;SDS011;48683;48.084;17.272;2023-04-24T11:08:59;2.22;;;1.20;;
62610;SDS011;48683;48.084;17.272;2023-04-24T11:11:29;2.25;;;1.10;;
62610;SDS011;48683;48.084;17.272;2023-04-24T11:16:21;1.13;;;1.03;;
62610;SDS011;48683;48.084;17.272;2023-04-24T11:18:51;1.65;;;1.05;;
62610;SDS011;48683;48.084;17.272;2023-04-24T11:21:19;1.13;;;1.02;;
62610;SDS011;48683;48.084;17.272;2023-04-24T11:23:47;1.30;;;1.20;;
62610;SDS011;48683;48.084;17.272;2023-04-24T11:26:13;1.27;;;1.17;;
62610;SDS011;48683;48.084;17.272;2023-04-24T11:28:44;1.58;;;1.20;;
62610;SDS011;48683;48.084;17.272;2023-04-24T11:31:33;2.70;;;1.20;;
62610;SDS011;48683;48.084;17.272;2023-04-24T11:34:12;1.02;;;1.00;;
62610;SDS011;48683;48.084;17.272;2023-04-24T11:36:39;2.20;;;1.20;;
62610;SDS011;48683;48.084;17.272;2023-04-24T11:39:05;1.48;;;1.08;;
62610;SDS011;48683;48.084;17.272;2023-04-24T11:41:31;1.98;;;1.40;;
62610;SDS011;48683;48.084;17.272;2023-04-24T11:43:58;1.42;;;1.33;;
62610;SDS011;48683;48.084;17.272;2023-04-24T11:46:26;1.27;;;1.13;;
62610;SDS011;48683;48.084;17.272;2023-04-24T11:48:52;2.38;;;1.42;;
62610;SDS011;48683;48.084;17.272;2023-04-24T11:51:18;1.90;;;1.50;;
62610;SDS011;48683;48.084;17.272;2023-04-24T11:53:43;1.33;;;1.23;;
62610;SDS011;48683;48.084;17.272;2023-04-24T11:56:09;1.80;;;1.50;;
62610;SDS011;48683;48.084;17.272;2023-04-24T11:58:40;2.10;;;1.60;;
62610;SDS011;48683;48.084;17.272;2023-04-24T12:01:05;3.03;;;1.83;;
62610;SDS011;48683;48.084;17.272;2023-04-24T12:03:31;2.00;;;1.80;;
62610;SDS011;48683;48.084;17.272;2023-04-24T12:06:06;2.47;;;2.00;;
62610;SDS011;48683;48.084;17.272;2023-04-24T12:08:35;2.22;;;1.90;;
62610;SDS011;48683;48.084;17.272;2023-04-24T12:11:01;1.50;;;1.40;;
62610;SDS011;48683;48.084;17.272;2023-04-24T12:13:27;4.00;;;2.10;;
62610;SDS011;48683;48.084;17.272;2023-04-24T12:15:53;2.00;;;1.80;;
62610;SDS011;48683;48.084;17.272;2023-04-24T12:18:21;2.95;;;1.90;;
62610;SDS011;48683;48.084;17.272;2023-04-24T12:20:47;2.58;;;1.90;;
62610;SDS011;48683;48.084;17.272;2023-04-24T12:23:13;2.07;;;1.77;;
62610;SDS011;48683;48.084;17.272;2023-04-24T12:25:38;3.67;;;2.20;;
62610;SDS011;48683;48.084;17.272;2023-04-24T12:30:33;2.50;;;1.95;;
62610;SDS011;48683;48.084;17.272;2023-04-24T12:33:00;2.25;;;1.80;;
62610;SDS011;48683;48.084;17.272;2023-04-24T12:35:28;2.05;;;1.85;;
62610;SDS011;48683;48.084;17.272;2023-04-24T12:37:54;1.75;;;1.65;;
62610;SDS011;48683;48.084;17.272;2023-04-24T12:40:20;2.37;;;1.70;;
62610;SDS011;48683;48.084;17.272;2023-04-24T12:42:47;1.80;;;1.70;;
62610;SDS011;48683;48.084;17.272;2023-04-24T12:45:15;1.55;;;1.45;;
62610;SDS011;48683;48.084;17.272;2023-04-24T12:47:41;2.40;;;1.27;;
62610;SDS011;48683;48.084;17.272;2023-04-24T12:50:08;1.42;;;1.30;;
62610;SDS011;48683;48.084;17.272;2023-04-24T12:52:35;1.30;;;1.20;;
62610;SDS011;48683;48.084;17.272;2023-04-24T12:55:01;1.30;;;1.20;;
62610;SDS011;48683;48.084;17.272;2023-04-24T12:57:28;1.85;;;1.58;;
62610;SDS011;48683;48.084;17.272;2023-04-24T12:59:55;1.48;;;1.38;;
62610;SDS011;48683;48.084;17.272;2023-04-24T13:02:21;1.73;;;1.33;;
62610;SDS011;48683;48.084;17.272;2023-04-24T13:04:47;1.35;;;1.25;;
62610;SDS011;48683;48.084;17.272;2023-04-24T13:07:13;1.98;;;1.33;;
62610;SDS011;48683;48.084;17.272;2023-04-24T13:09:39;1.93;;;1.10;;
62610;SDS011;48683;48.084;17.272;2023-04-24T13:12:06;1.40;;;1.17;;
62610;SDS011;48683;48.084;17.272;2023-04-24T13:14:32;1.55;;;1.45;;
62610;SDS011;48683;48.084;17.272;2023-04-24T13:16:57;1.65;;;1.55;;
62610;SDS011;48683;48.084;17.272;2023-04-24T13:19:26;3.65;;;1.35;;
62610;SDS011;48683;48.084;17.272;2023-04-24T13:21:52;6.40;;;1.58;;
62610;SDS011;48683;48.084;17.272;2023-04-24T13:24:20;1.40;;;1.30;;
62610;SDS011;48683;48.084;17.272;2023-04-24T13:26:45;1.73;;;1.30;;
62610;SDS011;48683;48.084;17.272;2023-04-24T13:29:11;2.65;;;1.25;;
62610;SDS011;48683;48.084;17.272;2023-04-24T13:31:36;2.47;;;1.27;;
62610;SDS011;48683;48.084;17.272;2023-04-24T13:34:02;1.45;;;1.35;;
62610;SDS011;48683;48.084;17.272;2023-04-24T13:36:28;1.67;;;1.10;;
62610;SDS011;48683;48.084;17.272;2023-04-24T13:38:54;2.10;;;1.02;;
62610;SDS011;48683;48.084;17.272;2023-04-24T13:41:19;1.33;;;1.20;;
62610;SDS011;48683;48.084;17.272;2023-04-24T13:43:45;3.72;;;1.38;;
62610;SDS011;48683;48.084;17.272;2023-04-24T13:46:10;1.75;;;1.20;;
62610;SDS011;48683;48.084;17.272;2023-04-24T13:48:35;3.13;;;1.30;;
62610;SDS011;48683;48.084;17.272;2023-04-24T13:51:01;1.70;;;1.38;;
62610;SDS011;48683;48.084;17.272;2023-04-24T13:53:26;3.00;;;1.13;;
62610;SDS011;48683;48.084;17.272;2023-04-24T13:55:51;2.17;;;1.30;;
62610;SDS011;48683;48.084;17.272;2023-04-24T13:58:17;1.30;;;1.20;;
62610;SDS011;48683;48.084;17.272;2023-04-24T14:00:42;2.15;;;1.40;;
62610;SDS011;48683;48.084;17.272;2023-04-24T14:03:08;1.30;;;1.17;;
62610;SDS011;48683;48.084;17.272;2023-04-24T14:05:33;1.30;;;1.20;;
62610;SDS011;48683;48.084;17.272;2023-04-24T14:07:58;2.55;;;1.48;;
62610;SDS011;48683;48.084;17.272;2023-04-24T14:10:24;2.15;;;1.65;;
62610;SDS011;48683;48.084;17.272;2023-04-24T14:12:50;1.40;;;1.30;;
62610;SDS011;48683;48.084;17.272;2023-04-24T14:15:16;1.73;;;1.35;;
62610;SDS011;48683;48.084;17.272;2023-04-24T14:17:41;1.58;;;1.17;;
62610;SDS011;48683;48.084;17.272;2023-04-24T14:20:08;1.50;;;1.33;;
62610;SDS011;48683;48.084;17.272;2023-04-24T14:22:34;1.42;;;1.30;;
62610;SDS011;48683;48.084;17.272;2023-04-24T14:24:59;4.25;;;1.35;;
62610;SDS011;48683;48.084;17.272;2023-04-24T14:27:25;2.92;;;1.45;;
62610;SDS011;48683;48.084;17.272;2023-04-24T14:29:51;3.17;;;1.40;;
62610;SDS011;48683;48.084;17.272;2023-04-24T14:32:17;12.55;;;1.50;;
62610;SDS011;48683;48.084;17.272;2023-04-24T14:34:42;3.05;;;1.70;;
62610;SDS011;48683;48.084;17.272;2023-04-24T14:37:08;1.60;;;1.42;;